sensor_id;sensor_type;location;lat;lon;timestamp;pressure;altitude;pressure_sealevel;temperature;humidity
16331;BME280;8275;48.206;16.340;2023-12-29T00:01:18;99455.25;;;11.11;50.46
16331;BME280;8275;48.206;16.340;2023-12-29T00:03:47;99457.50;;;11.14;50.33
16331;BME280;8275;48.206;16.340;2023-12-29T00:06:15;99458.63;;;11.18;50.29
16331;BME280;8275;48.206;16.340;2023-12-29T00:08:43;99456.47;;;11.20;50.35
16331;BME280;8275;48.206;16.340;2023-12-29T00:11:17;99442.75;;;11.20;50.31
16331;BME280;8275;48.206;16.340;2023-12-29T00:13:46;99455.13;;;11.22;50.38
16331;BME280;8275;48.206;16.340;2023-12-29T00:16:15;99443.66;;;11.25;50.55
16331;BME280;8275;48.206;16.340;2023-12-29T00:18:45;99448.38;;;11.30;50.01
16331;BME280;8275;48.206;16.340;2023-12-29T00:21:13;99445.94;;;11.34;50.18
16331;BME280;8275;48.206;16.340;2023-12-29T00:23:45;99443.75;;;11.36;49.87
16331;BME280;8275;48.206;16.340;2023-12-29T00:26:16;99446.25;;;11.37;50.31
16331;BME280;8275;48.206;16.340;2023-12-29T00:28:44;99442.41;;;11.38;50.06
16331;BME280;8275;48.206;16.340;2023-12-29T00:31:14;99440.81;;;11.42;49.89
16331;BME280;8275;48.206;16.340;2023-12-29T00:33:45;99451.28;;;11.45;50.04
16331;BME280;8275;48.206;16.340;2023-12-29T00:36:15;99458.16;;;11.48;49.78
16331;BME280;8275;48.206;16.340;2023-12-29T00:38:44;99456.81;;;11.50;49.93
16331;BME280;8275;48.206;16.340;2023-12-29T00:41:12;99460.97;;;11.53;50.18
16331;BME280;8275;48.206;16.340;2023-12-29T00:43:41;99452.47;;;11.54;49.78
16331;BME280;8275;48.206;16.340;2023-12-29T00:46:10;99450.56;;;11.55;49.67
16331;BME280;8275;48.206;16.340;2023-12-29T00:48:38;99448.88;;;11.54;49.59
16331;BME280;8275;48.206;16.340;2023-12-29T00:51:08;99442.00;;;11.51;49.47
16331;BME280;8275;48.206;16.340;2023-12-29T00:53:37;99452.97;;;11.51;50.07
16331;BME280;8275;48.206;16.340;2023-12-29T00:56:10;99453.81;;;11.52;49.54
16331;BME280;8275;48.206;16.340;2023-12-29T00:58:38;99454.94;;;11.56;49.68
16331;BME280;8275;48.206;16.340;2023-12-29T01:01:08;99447.03;;;11.59;49.55
16331;BME280;8275;48.206;16.340;2023-12-29T01:03:39;99442.38;;;11.60;49.78
16331;BME280;8275;48.206;16.340;2023-12-29T01:06:09;99443.22;;;11.60;49.73
16331;BME280;8275;48.206;16.340;2023-12-29T01:08:37;99452.25;;;11.61;49.38
16331;BME280;8275;48.206;16.340;2023-12-29T01:11:05;99455.00;;;11.61;49.71
16331;BME280;8275;48.206;16.340;2023-12-29T01:13:34;99457.75;;;11.61;49.37
16331;BME280;8275;48.206;16.340;2023-12-29T01:16:03;99458.56;;;11.61;49.38
16331;BME280;8275;48.206;16.340;2023-12-29T01:18:32;99456.09;;;11.60;49.45
16331;BME280;8275;48.206;16.340;2023-12-29T01:21:00;99466.25;;;11.59;49.40
16331;BME280;8275;48.206;16.340;2023-12-29T01:23:31;99478.28;;;11.58;49.43
16331;BME280;8275;48.206;16.340;2023-12-29T01:25:59;99481.31;;;11.57;49.39
16331;BME280;8275;48.206;16.340;2023-12-29T01:28:28;99474.16;;;11.56;49.28
16331;BME280;8275;48.206;16.340;2023-12-29T01:30:56;99464.28;;;11.55;49.28
16331;BME280;8275;48.206;16.340;2023-12-29T01:33:25;99466.44;;;11.53;49.57
16331;BME280;8275;48.206;16.340;2023-12-29T01:35:53;99457.38;;;11.52;49.54
16331;BME280;8275;48.206;16.340;2023-12-29T01:38:21;99464.78;;;11.52;49.59
16331;BME280;8275;48.206;16.340;2023-12-29T01:40:51;99454.63;;;11.52;49.35
16331;BME280;8275;48.206;16.340;2023-12-29T01:43:20;99450.81;;;11.53;49.70
16331;BME280;8275;48.206;16.340;2023-12-29T01:45:48;99441.22;;;11.56;49.30
16331;BME280;8275;48.206;16.340;2023-12-29T01:48:24;99444.56;;;11.58;49.21
16331;BME280;8275;48.206;16.340;2023-12-29T01:50:53;99434.94;;;11.55;49.55
16331;BME280;8275;48.206;16.340;2023-12-29T01:53:22;99434.59;;;11.52;49.30
16331;BME280;8275;48.206;16.340;2023-12-29T01:56:07;99427.16;;;11.47;49.57
16331;BME280;8275;48.206;16.340;2023-12-29T01:58:36;99431.81;;;11.47;49.59
16331;BME280;8275;48.206;16.340;2023-12-29T02:01:05;99432.91;;;11.46;49.41
16331;BME280;8275;48.206;16.340;2023-12-29T02:03:35;99427.41;;;11.46;49.49
16331;BME280;8275;48.206;16.340;2023-12-29T02:06:06;99423.56;;;11.47;49.64
16331;BME280;8275;48.206;16.340;2023-12-29T02:08:34;99416.75;;;11.49;49.39
16331;BME280;8275;48.206;16.340;2023-12-29T02:11:05;99423.34;;;11.48;49.20
16331;BME280;8275;48.206;16.340;2023-12-29T02:13:34;99421.94;;;11.46;49.18
16331;BME280;8275;48.206;16.340;2023-12-29T02:16:09;99418.06;;;11.42;49.62
16331;BME280;8275;48.206;16.340;2023-12-29T02:18:42;99420.19;;;11.40;49.20
16331;BME280;8275;48.206;16.340;2023-12-29T02:21:13;99422.66;;;11.36;49.24
16331;BME280;8275;48.206;16.340;2023-12-29T02:23:41;99416.88;;;11.33;49.47
16331;BME280;8275;48.206;16.340;2023-12-29T02:26:13;99404.72;;;11.28;49.21
16331;BME280;8275;48.206;16.340;2023-12-29T02:28:47;99412.38;;;11.26;49.66
16331;BME280;8275;48.206;16.340;2023-12-29T02:31:20;99415.97;;;11.27;49.38
16331;BME280;8275;48.206;16.340;2023-12-29T02:33:53;99413.22;;;11.27;49.48
16331;BME280;8275;48.206;16.340;2023-12-29T02:36:22;99419.78;;;11.26;49.20
16331;BME280;8275;48.206;16.340;2023-12-29T02:38:52;99406.91;;;11.26;49.11
16331;BME280;8275;48.206;16.340;2023-12-29T02:41:21;99412.38;;;11.26;49.57
16331;BME280;8275;48.206;16.340;2023-12-29T02:43:51;99409.91;;;11.25;49.44
16331;BME280;8275;48.206;16.340;2023-12-29T02:46:20;99409.34;;;11.23;49.40
16331;BME280;8275;48.206;16.340;2023-12-29T02:48:48;99413.16;;;11.22;49.62
16331;BME280;8275;48.206;16.340;2023-12-29T02:51:16;99412.31;;;11.21;49.52
16331;BME280;8275;48.206;16.340;2023-12-29T02:53:45;99427.44;;;11.24;49.27
16331;BME280;8275;48.206;16.340;2023-12-29T02:56:14;99425.53;;;11.24;49.61
16331;BME280;8275;48.206;16.340;2023-12-29T02:58:44;99430.50;;;11.27;49.56
16331;BME280;8275;48.206;16.340;2023-12-29T03:01:15;99429.97;;;11.30;49.22
16331;BME280;8275;48.206;16.340;2023-12-29T03:03:43;99413.28;;;11.32;49.01
16331;BME280;8275;48.206;16.340;2023-12-29T03:06:12;99411.09;;;11.34;49.18
16331;BME280;8275;48.206;16.340;2023-12-29T03:08:40;99399.03;;;11.35;49.32
16331;BME280;8275;48.206;16.340;2023-12-29T03:11:09;99399.63;;;11.37;48.89
16331;BME280;8275;48.206;16.340;2023-12-29T03:13:37;99398.53;;;11.38;49.28
16331;BME280;8275;48.206;16.340;2023-12-29T03:16:07;99387.56;;;11.38;48.91
16331;BME280;8275;48.206;16.340;2023-12-29T03:18:35;99390.03;;;11.40;49.08
16331;BME280;8275;48.206;16.340;2023-12-29T03:21:07;99388.13;;;11.40;49.10
16331;BME280;8275;48.206;16.340;2023-12-29T03:23:35;99381.56;;;11.41;49.31
16331;BME280;8275;48.206;16.340;2023-12-29T03:26:04;99392.25;;;11.43;49.42
16331;BME280;8275;48.206;16.340;2023-12-29T03:28:33;99394.50;;;11.46;49.31
16331;BME280;8275;48.206;16.340;2023-12-29T03:31:01;99395.91;;;11.48;49.26
16331;BME280;8275;48.206;16.340;2023-12-29T03:33:31;99390.97;;;11.50;49.20
16331;BME280;8275;48.206;16.340;2023-12-29T03:36:00;99389.63;;;11.53;49.28
16331;BME280;8275;48.206;16.340;2023-12-29T03:38:28;99380.06;;;11.55;49.24
16331;BME280;8275;48.206;16.340;2023-12-29T03:40:57;99380.06;;;11.55;49.56
16331;BME280;8275;48.206;16.340;2023-12-29T03:43:25;99384.19;;;11.58;49.10
16331;BME280;8275;48.206;16.340;2023-12-29T03:45:53;99369.13;;;11.60;49.02
16331;BME280;8275;48.206;16.340;2023-12-29T03:48:22;99371.66;;;11.67;49.29
16331;BME280;8275;48.206;16.340;2023-12-29T03:50:52;99365.19;;;11.78;49.12
16331;BME280;8275;48.206;16.340;2023-12-29T03:53:20;99367.81;;;11.94;49.04
16331;BME280;8275;48.206;16.340;2023-12-29T03:55:48;99368.47;;;12.12;48.47
16331;BME280;8275;48.206;16.340;2023-12-29T03:58:17;99364.22;;;12.31;48.16
16331;BME280;8275;48.206;16.340;2023-12-29T04:00:45;99363.78;;;12.49;48.10
16331;BME280;8275;48.206;16.340;2023-12-29T04:03:13;99350.41;;;12.67;48.09
16331;BME280;8275;48.206;16.340;2023-12-29T04:05:42;99347.19;;;12.86;47.72
16331;BME280;8275;48.206;16.340;2023-12-29T04:08:12;99358.50;;;13.04;47.50
16331;BME280;8275;48.206;16.340;2023-12-29T04:10:41;99360.78;;;13.17;47.33
16331;BME280;8275;48.206;16.340;2023-12-29T04:13:09;99363.84;;;13.31;46.98
16331;BME280;8275;48.206;16.340;2023-12-29T04:15:38;99358.66;;;13.40;46.88
16331;BME280;8275;48.206;16.340;2023-12-29T04:18:06;99359.75;;;13.49;46.76
16331;BME280;8275;48.206;16.340;2023-12-29T04:20:34;99355.91;;;13.55;46.59
16331;BME280;8275;48.206;16.340;2023-12-29T04:23:05;99356.75;;;13.60;46.53
16331;BME280;8275;48.206;16.340;2023-12-29T04:25:35;99368.88;;;13.64;46.40
16331;BME280;8275;48.206;16.340;2023-12-29T04:28:04;99361.97;;;13.67;46.35
16331;BME280;8275;48.206;16.340;2023-12-29T04:30:33;99358.13;;;13.68;46.16
16331;BME280;8275;48.206;16.340;2023-12-29T04:33:02;99354.00;;;13.70;46.13
16331;BME280;8275;48.206;16.340;2023-12-29T04:35:31;99349.88;;;13.73;46.02
16331;BME280;8275;48.206;16.340;2023-12-29T04:37:59;99358.97;;;13.78;46.07
16331;BME280;8275;48.206;16.340;2023-12-29T04:40:28;99355.38;;;13.88;45.81
16331;BME280;8275;48.206;16.340;2023-12-29T04:42:57;99342.72;;;13.97;45.73
16331;BME280;8275;48.206;16.340;2023-12-29T04:45:26;99346.00;;;14.09;45.61
16331;BME280;8275;48.206;16.340;2023-12-29T04:47:56;99344.06;;;14.20;45.46
16331;BME280;8275;48.206;16.340;2023-12-29T04:50:24;99352.31;;;14.30;45.13
16331;BME280;8275;48.206;16.340;2023-12-29T04:52:53;99350.69;;;14.39;44.83
16331;BME280;8275;48.206;16.340;2023-12-29T04:55:21;99356.44;;;14.47;44.60
16331;BME280;8275;48.206;16.340;2023-12-29T04:57:50;99347.56;;;14.55;44.71
16331;BME280;8275;48.206;16.340;2023-12-29T05:00:20;99353.91;;;14.61;44.41
16331;BME280;8275;48.206;16.340;2023-12-29T05:02:48;99352.78;;;14.67;44.33
16331;BME280;8275;48.206;16.340;2023-12-29T05:05:17;99352.78;;;14.72;43.99
16331;BME280;8275;48.206;16.340;2023-12-29T05:07:45;99342.03;;;14.75;44.01
16331;BME280;8275;48.206;16.340;2023-12-29T05:10:14;99347.25;;;14.77;44.03
16331;BME280;8275;48.206;16.340;2023-12-29T05:12:43;99345.03;;;14.79;43.99
16331;BME280;8275;48.206;16.340;2023-12-29T05:15:11;99354.13;;;14.80;44.07
16331;BME280;8275;48.206;16.340;2023-12-29T05:17:41;99350.25;;;14.81;44.16
16331;BME280;8275;48.206;16.340;2023-12-29T05:20:11;99344.47;;;14.82;44.06
16331;BME280;8275;48.206;16.340;2023-12-29T05:22:40;99352.44;;;14.84;44.03
16331;BME280;8275;48.206;16.340;2023-12-29T05:25:09;99349.41;;;14.85;44.04
16331;BME280;8275;48.206;16.340;2023-12-29T05:27:37;99347.47;;;14.86;44.13
16331;BME280;8275;48.206;16.340;2023-12-29T05:30:07;99354.13;;;14.85;44.02
16331;BME280;8275;48.206;16.340;2023-12-29T05:32:35;99343.88;;;14.85;44.05
16331;BME280;8275;48.206;16.340;2023-12-29T05:35:06;99342.53;;;14.83;43.95
16331;BME280;8275;48.206;16.340;2023-12-29T05:37:35;99353.84;;;14.81;43.89
16331;BME280;8275;48.206;16.340;2023-12-29T05:40:05;99342.81;;;14.76;44.01
16331;BME280;8275;48.206;16.340;2023-12-29T05:42:33;99347.78;;;14.74;44.03
16331;BME280;8275;48.206;16.340;2023-12-29T05:45:03;99353.06;;;14.70;43.93
16331;BME280;8275;48.206;16.340;2023-12-29T05:47:31;99352.78;;;14.67;44.03
16331;BME280;8275;48.206;16.340;2023-12-29T05:50:00;99350.88;;;14.62;43.91
16331;BME280;8275;48.206;16.340;2023-12-29T05:52:30;99350.63;;;14.59;44.01
16331;BME280;8275;48.206;16.340;2023-12-29T05:54:59;99365.78;;;14.56;44.00
16331;BME280;8275;48.206;16.340;2023-12-29T05:57:27;99363.03;;;14.51;43.93
16331;BME280;8275;48.206;16.340;2023-12-29T05:59:56;99352.56;;;14.48;43.97
16331;BME280;8275;48.206;16.340;2023-12-29T06:02:25;99358.66;;;14.45;44.02
16331;BME280;8275;48.206;16.340;2023-12-29T06:04:53;99358.38;;;14.42;44.07
16331;BME280;8275;48.206;16.340;2023-12-29T06:07:22;99353.97;;;14.36;43.92
16331;BME280;8275;48.206;16.340;2023-12-29T06:09:52;99356.75;;;14.31;44.04
16331;BME280;8275;48.206;16.340;2023-12-29T06:12:20;99357.53;;;14.26;44.12
16331;BME280;8275;48.206;16.340;2023-12-29T06:14:49;99363.88;;;14.22;43.96
16331;BME280;8275;48.206;16.340;2023-12-29T06:17:17;99363.63;;;14.18;44.03
16331;BME280;8275;48.206;16.340;2023-12-29T06:19:46;99358.13;;;14.13;44.14
16331;BME280;8275;48.206;16.340;2023-12-29T06:22:15;99357.00;;;14.09;44.14
16331;BME280;8275;48.206;16.340;2023-12-29T06:24:43;99354.81;;;14.06;44.08
16331;BME280;8275;48.206;16.340;2023-12-29T06:27:13;99356.19;;;14.03;44.28
16331;BME280;8275;48.206;16.340;2023-12-29T06:29:42;99352.06;;;14.01;44.35
16331;BME280;8275;48.206;16.340;2023-12-29T06:32:10;99357.28;;;13.97;44.33
16331;BME280;8275;48.206;16.340;2023-12-29T06:34:40;99359.22;;;13.92;44.14
16331;BME280;8275;48.206;16.340;2023-12-29T06:37:09;99358.38;;;13.81;44.44
16331;BME280;8275;48.206;16.340;2023-12-29T06:39:37;99355.34;;;13.68;44.49
16331;BME280;8275;48.206;16.340;2023-12-29T06:42:07;99354.28;;;13.54;44.49
16331;BME280;8275;48.206;16.340;2023-12-29T06:44:37;99356.16;;;13.38;44.50
16331;BME280;8275;48.206;16.340;2023-12-29T06:47:05;99353.09;;;13.24;44.69
16331;BME280;8275;48.206;16.340;2023-12-29T06:49:34;99351.72;;;13.12;44.78
16331;BME280;8275;48.206;16.340;2023-12-29T06:52:04;99355.47;;;13.01;44.89
16331;BME280;8275;48.206;16.340;2023-12-29T06:54:34;99352.16;;;12.89;45.04
16331;BME280;8275;48.206;16.340;2023-12-29T06:57:04;99350.19;;;12.79;44.99
16331;BME280;8275;48.206;16.340;2023-12-29T06:59:32;99345.47;;;12.69;44.91
16331;BME280;8275;48.206;16.340;2023-12-29T07:02:02;99337.16;;;12.59;45.17
16331;BME280;8275;48.206;16.340;2023-12-29T07:04:31;99344.53;;;12.49;45.33
16331;BME280;8275;48.206;16.340;2023-12-29T07:07:00;99337.38;;;12.43;45.59
16331;BME280;8275;48.206;16.340;2023-12-29T07:09:29;99337.84;;;12.35;45.55
16331;BME280;8275;48.206;16.340;2023-12-29T07:11:58;99353.50;;;12.29;45.65
16331;BME280;8275;48.206;16.340;2023-12-29T07:14:27;99354.31;;;12.25;45.82
16331;BME280;8275;48.206;16.340;2023-12-29T07:16:55;99354.25;;;12.20;45.77
16331;BME280;8275;48.206;16.340;2023-12-29T07:19:26;99348.44;;;12.16;45.52
16331;BME280;8275;48.206;16.340;2023-12-29T07:22:01;99364.66;;;12.13;45.80
16331;BME280;8275;48.206;16.340;2023-12-29T07:24:29;99367.91;;;12.10;45.79
16331;BME280;8275;48.206;16.340;2023-12-29T07:26:58;99370.38;;;12.06;46.18
16331;BME280;8275;48.206;16.340;2023-12-29T07:29:26;99371.16;;;12.02;45.67
16331;BME280;8275;48.206;16.340;2023-12-29T07:31:55;99384.28;;;11.99;46.21
16331;BME280;8275;48.206;16.340;2023-12-29T07:34:23;99382.38;;;12.00;46.24
16331;BME280;8275;48.206;16.340;2023-12-29T07:36:53;99381.31;;;12.01;46.40
16331;BME280;8275;48.206;16.340;2023-12-29T07:39:22;99378.28;;;12.03;46.64
16331;BME280;8275;48.206;16.340;2023-12-29T07:41:51;99376.09;;;12.05;46.30
16331;BME280;8275;48.206;16.340;2023-12-29T07:44:20;99375.31;;;12.09;46.72
16331;BME280;8275;48.206;16.340;2023-12-29T07:46:48;99374.28;;;12.15;46.51
16331;BME280;8275;48.206;16.340;2023-12-29T07:49:17;99376.28;;;12.25;46.71
16331;BME280;8275;48.206;16.340;2023-12-29T07:51:47;99359.31;;;12.38;46.89
16331;BME280;8275;48.206;16.340;2023-12-29T07:54:16;99368.75;;;12.52;47.07
16331;BME280;8275;48.206;16.340;2023-12-29T07:56:45;99368.53;;;12.68;47.01
16331;BME280;8275;48.206;16.340;2023-12-29T07:59:14;99381.25;;;12.85;46.76
16331;BME280;8275;48.206;16.340;2023-12-29T08:01:42;99374.72;;;13.01;46.60
16331;BME280;8275;48.206;16.340;2023-12-29T08:04:11;99384.16;;;13.15;46.53
16331;BME280;8275;48.206;16.340;2023-12-29T08:06:41;99380.63;;;13.29;46.16
16331;BME280;8275;48.206;16.340;2023-12-29T08:09:10;99382.59;;;13.39;46.23
16331;BME280;8275;48.206;16.340;2023-12-29T08:11:40;99392.25;;;13.47;46.10
16331;BME280;8275;48.206;16.340;2023-12-29T08:14:10;99393.06;;;13.52;45.86
16331;BME280;8275;48.206;16.340;2023-12-29T08:16:39;99401.63;;;13.56;45.81
16331;BME280;8275;48.206;16.340;2023-12-29T08:19:08;99397.19;;;13.55;45.56
16331;BME280;8275;48.206;16.340;2023-12-29T08:21:37;99402.69;;;13.50;45.56
16331;BME280;8275;48.206;16.340;2023-12-29T08:24:06;99409.00;;;13.45;45.52
16331;BME280;8275;48.206;16.340;2023-12-29T08:26:44;99408.16;;;13.45;45.72
16331;BME280;8275;48.206;16.340;2023-12-29T08:29:13;99395.78;;;13.47;45.63
16331;BME280;8275;48.206;16.340;2023-12-29T08:31:42;99396.38;;;13.54;45.75
16331;BME280;8275;48.206;16.340;2023-12-29T08:34:11;99398.03;;;13.60;45.88
16331;BME280;8275;48.206;16.340;2023-12-29T08:36:39;99400.78;;;13.70;45.84
16331;BME280;8275;48.206;16.340;2023-12-29T08:39:08;99403.28;;;13.82;45.96
16331;BME280;8275;48.206;16.340;2023-12-29T08:41:42;99404.94;;;13.93;45.77
16331;BME280;8275;48.206;16.340;2023-12-29T08:44:11;99405.78;;;14.03;45.72
16331;BME280;8275;48.206;16.340;2023-12-29T08:46:39;99408.50;;;14.14;45.53
16331;BME280;8275;48.206;16.340;2023-12-29T08:49:07;99415.41;;;14.21;45.37
16331;BME280;8275;48.206;16.340;2023-12-29T08:51:36;99401.34;;;14.28;45.41
16331;BME280;8275;48.206;16.340;2023-12-29T08:54:05;99406.06;;;14.32;45.18
16331;BME280;8275;48.206;16.340;2023-12-29T08:56:34;99411.03;;;14.35;45.23
16331;BME280;8275;48.206;16.340;2023-12-29T08:59:04;99408.56;;;14.34;45.14
16331;BME280;8275;48.206;16.340;2023-12-29T09:01:32;99413.78;;;14.35;45.04
16331;BME280;8275;48.206;16.340;2023-12-29T09:04:01;99413.50;;;14.37;45.16
16331;BME280;8275;48.206;16.340;2023-12-29T09:06:29;99418.16;;;14.41;45.16
16331;BME280;8275;48.206;16.340;2023-12-29T09:08:58;99413.50;;;14.47;45.17
16331;BME280;8275;48.206;16.340;2023-12-29T09:11:26;99405.75;;;14.54;44.93
16331;BME280;8275;48.206;16.340;2023-12-29T09:13:54;99408.75;;;14.62;45.08
16331;BME280;8275;48.206;16.340;2023-12-29T09:16:24;99401.56;;;14.71;44.96
16331;BME280;8275;48.206;16.340;2023-12-29T09:18:53;99394.94;;;14.83;44.82
16331;BME280;8275;48.206;16.340;2023-12-29T09:21:21;99390.50;;;14.92;44.60
16331;BME280;8275;48.206;16.340;2023-12-29T09:23:50;99386.59;;;15.03;44.59
16331;BME280;8275;48.206;16.340;2023-12-29T09:26:19;99393.69;;;15.14;44.33
16331;BME280;8275;48.206;16.340;2023-12-29T09:28:47;99398.91;;;15.25;44.35
16331;BME280;8275;48.206;16.340;2023-12-29T09:31:16;99397.19;;;15.34;44.25
16331;BME280;8275;48.206;16.340;2023-12-29T09:33:46;99398.25;;;15.43;44.01
16331;BME280;8275;48.206;16.340;2023-12-29T09:36:14;99407.59;;;15.53;44.01
16331;BME280;8275;48.206;16.340;2023-12-29T09:38:43;99396.25;;;15.59;43.90
16331;BME280;8275;48.206;16.340;2023-12-29T09:41:15;99393.72;;;15.68;43.83
16331;BME280;8275;48.206;16.340;2023-12-29T09:43:44;99397.25;;;15.73;43.69
16331;BME280;8275;48.206;16.340;2023-12-29T09:46:17;99384.28;;;15.74;43.59
16331;BME280;8275;48.206;16.340;2023-12-29T09:48:47;99392.78;;;15.77;43.51
16331;BME280;8275;48.206;16.340;2023-12-29T09:51:20;99389.78;;;15.79;43.23
16331;BME280;8275;48.206;16.340;2023-12-29T09:53:51;99384.50;;;15.77;43.17
16331;BME280;8275;48.206;16.340;2023-12-29T09:56:20;99386.47;;;15.77;42.95
16331;BME280;8275;48.206;16.340;2023-12-29T09:58:48;99385.31;;;15.83;43.05
16331;BME280;8275;48.206;16.340;2023-12-29T10:01:19;99388.88;;;15.88;43.03
16331;BME280;8275;48.206;16.340;2023-12-29T10:03:50;99383.28;;;15.93;42.56
16331;BME280;8275;48.206;16.340;2023-12-29T10:06:22;99367.53;;;15.94;42.46
16331;BME280;8275;48.206;16.340;2023-12-29T10:08:53;99368.94;;;15.91;42.37
16331;BME280;8275;48.206;16.340;2023-12-29T10:11:24;99360.94;;;15.90;42.54
16331;BME280;8275;48.206;16.340;2023-12-29T10:13:55;99353.75;;;15.89;42.45
16331;BME280;8275;48.206;16.340;2023-12-29T10:16:32;99354.34;;;15.86;42.28
16331;BME280;8275;48.206;16.340;2023-12-29T10:19:13;99338.06;;;15.84;42.23
16331;BME280;8275;48.206;16.340;2023-12-29T10:21:52;99336.69;;;15.82;42.34
16331;BME280;8275;48.206;16.340;2023-12-29T10:24:23;99326.19;;;15.84;42.38
16331;BME280;8275;48.206;16.340;2023-12-29T10:26:52;99327.84;;;15.85;42.42
16331;BME280;8275;48.206;16.340;2023-12-29T10:29:21;99322.84;;;15.87;42.14
16331;BME280;8275;48.206;16.340;2023-12-29T10:31:51;99331.38;;;15.90;42.00
16331;BME280;8275;48.206;16.340;2023-12-29T10:34:22;99330.22;;;15.96;41.88
16331;BME280;8275;48.206;16.340;2023-12-29T10:36:57;99327.13;;;16.03;42.00
16331;BME280;8275;48.206;16.340;2023-12-29T10:39:26;99329.00;;;16.07;41.74
16331;BME280;8275;48.206;16.340;2023-12-29T10:42:04;99323.22;;;16.09;41.85
16331;BME280;8275;48.206;16.340;2023-12-29T10:44:34;99332.84;;;16.11;41.77
16331;BME280;8275;48.206;16.340;2023-12-29T10:47:09;99306.28;;;16.15;41.99
16331;BME280;8275;48.206;16.340;2023-12-29T10:49:40;99302.81;;;16.29;41.95
16331;BME280;8275;48.206;16.340;2023-12-29T10:52:13;99311.69;;;16.54;41.41
16331;BME280;8275;48.206;16.340;2023-12-29T10:54:42;99292.22;;;16.83;40.10
16331;BME280;8275;48.206;16.340;2023-12-29T10:57:12;99276.75;;;17.24;39.83
16331;BME280;8275;48.206;16.340;2023-12-29T10:59:41;99266.91;;;17.69;39.56
16331;BME280;8275;48.206;16.340;2023-12-29T11:02:12;99263.78;;;18.03;38.89
16331;BME280;8275;48.206;16.340;2023-12-29T11:04:44;99252.53;;;18.27;38.30
16331;BME280;8275;48.206;16.340;2023-12-29T11:07:13;99241.38;;;18.45;38.05
16331;BME280;8275;48.206;16.340;2023-12-29T11:09:42;99247.34;;;18.66;37.94
16331;BME280;8275;48.206;16.340;2023-12-29T11:12:12;99245.03;;;18.95;37.68
16331;BME280;8275;48.206;16.340;2023-12-29T11:14:41;99234.94;;;19.35;36.96
16331;BME280;8275;48.206;16.340;2023-12-29T11:17:14;99228.84;;;19.69;36.44
16331;BME280;8275;48.206;16.340;2023-12-29T11:19:46;99226.28;;;20.03;36.49
16331;BME280;8275;48.206;16.340;2023-12-29T11:22:17;99222.88;;;20.45;35.66
16331;BME280;8275;48.206;16.340;2023-12-29T11:24:46;99217.25;;;20.84;34.94
16331;BME280;8275;48.206;16.340;2023-12-29T11:27:16;99208.81;;;21.24;34.79
16331;BME280;8275;48.206;16.340;2023-12-29T11:29:46;99221.44;;;21.47;33.79
16331;BME280;8275;48.206;16.340;2023-12-29T11:32:22;99215.84;;;21.55;33.97
16331;BME280;8275;48.206;16.340;2023-12-29T11:35:03;99208.31;;;21.56;33.72
16331;BME280;8275;48.206;16.340;2023-12-29T11:37:51;99207.31;;;21.52;33.74
16331;BME280;8275;48.206;16.340;2023-12-29T11:40:23;99211.75;;;21.53;33.54
16331;BME280;8275;48.206;16.340;2023-12-29T11:43:00;99207.63;;;21.67;32.83
16331;BME280;8275;48.206;16.340;2023-12-29T11:45:31;99207.44;;;21.98;32.84
16331;BME280;8275;48.206;16.340;2023-12-29T11:48:01;99199.22;;;22.40;32.13
16331;BME280;8275;48.206;16.340;2023-12-29T11:50:34;99211.00;;;22.83;32.21
16331;BME280;8275;48.206;16.340;2023-12-29T11:53:04;99207.41;;;23.24;30.76
16331;BME280;8275;48.206;16.340;2023-12-29T11:55:35;99197.44;;;23.43;30.44
16331;BME280;8275;48.206;16.340;2023-12-29T11:58:23;99192.22;;;23.54;30.44
16331;BME280;8275;48.206;16.340;2023-12-29T12:00:52;99186.47;;;23.71;30.44
16331;BME280;8275;48.206;16.340;2023-12-29T12:03:25;99188.38;;;23.91;29.67
16331;BME280;8275;48.206;16.340;2023-12-29T12:05:56;99184.72;;;24.11;28.95
16331;BME280;8275;48.206;16.340;2023-12-29T12:08:31;99175.88;;;24.21;28.90
16331;BME280;8275;48.206;16.340;2023-12-29T12:11:42;99184.28;;;24.33;28.91
16331;BME280;8275;48.206;16.340;2023-12-29T12:14:10;99180.19;;;24.43;28.25
16331;BME280;8275;48.206;16.340;2023-12-29T12:16:51;99172.03;;;24.38;28.24
16331;BME280;8275;48.206;16.340;2023-12-29T12:19:21;99177.16;;;24.36;27.79
16331;BME280;8275;48.206;16.340;2023-12-29T12:21:54;99176.69;;;24.34;27.98
16331;BME280;8275;48.206;16.340;2023-12-29T12:24:23;99178.91;;;24.28;27.94
16331;BME280;8275;48.206;16.340;2023-12-29T12:26:53;99177.97;;;24.24;27.66
16331;BME280;8275;48.206;16.340;2023-12-29T12:29:22;99183.00;;;24.19;27.76
16331;BME280;8275;48.206;16.340;2023-12-29T12:31:54;99182.28;;;24.10;27.63
16331;BME280;8275;48.206;16.340;2023-12-29T12:34:23;99191.28;;;23.95;27.72
16331;BME280;8275;48.206;16.340;2023-12-29T12:36:54;99178.41;;;23.69;27.53
16331;BME280;8275;48.206;16.340;2023-12-29T12:39:38;99175.63;;;23.37;27.82
16331;BME280;8275;48.206;16.340;2023-12-29T12:42:07;99175.81;;;23.11;28.38
16331;BME280;8275;48.206;16.340;2023-12-29T12:44:40;99174.22;;;22.81;28.44
16331;BME280;8275;48.206;16.340;2023-12-29T12:47:17;99165.50;;;22.53;28.93
16331;BME280;8275;48.206;16.340;2023-12-29T12:49:46;99164.63;;;22.32;28.89
16331;BME280;8275;48.206;16.340;2023-12-29T12:52:16;99166.19;;;22.12;29.10
16331;BME280;8275;48.206;16.340;2023-12-29T12:54:46;99173.78;;;21.95;29.52
16331;BME280;8275;48.206;16.340;2023-12-29T12:57:19;99165.13;;;21.79;29.32
16331;BME280;8275;48.206;16.340;2023-12-29T12:59:49;99164.16;;;21.66;29.80
16331;BME280;8275;48.206;16.340;2023-12-29T13:02:19;99174.19;;;21.59;30.04
16331;BME280;8275;48.206;16.340;2023-12-29T13:04:47;99175.34;;;21.49;29.85
16331;BME280;8275;48.206;16.340;2023-12-29T13:07:19;99177.00;;;21.42;30.04
16331;BME280;8275;48.206;16.340;2023-12-29T13:09:50;99167.81;;;21.33;29.87
16331;BME280;8275;48.206;16.340;2023-12-29T13:12:19;99178.16;;;21.24;30.27
16331;BME280;8275;48.206;16.340;2023-12-29T13:14:47;99172.59;;;21.15;30.02